createdAt,value
2023-05-08T00:00:34.732Z,9.75
2023-05-08T00:01:56.341Z,10.07
2023-05-08T00:03:20.630Z,9.56
2023-05-08T00:04:56.908Z,10.84
2023-05-08T00:06:18.926Z,9.96
2023-05-08T00:07:42.818Z,10.39
2023-05-08T00:09:04.419Z,10.77
2023-05-08T00:10:34.001Z,10.68
2023-05-08T00:11:55.982Z,10.47
2023-05-08T00:13:20.621Z,11.45
2023-05-08T00:14:42.791Z,11.81
2023-05-08T00:16:13.691Z,13.13
2023-05-08T00:17:38.100Z,13.10
2023-05-08T00:19:02.093Z,13.32
2023-05-08T00:20:24.294Z,13.49
2023-05-08T00:21:48.345Z,13.64
2023-05-08T00:23:21.950Z,13.19
2023-05-08T00:24:43.728Z,13.98
2023-05-08T00:26:07.790Z,13.71
2023-05-08T00:27:31.745Z,14.61
2023-05-08T00:28:53.621Z,14.78
2023-05-08T00:30:17.855Z,15.02
2023-05-08T00:31:39.872Z,15.24
2023-05-08T00:33:03.741Z,15.21
2023-05-08T00:34:28.180Z,15.55
2023-05-08T00:35:51.968Z,15.04
2023-05-08T00:37:16.187Z,14.85
2023-05-08T00:38:40.574Z,14.85
2023-05-08T00:40:13.781Z,15.57
2023-05-08T00:41:38.039Z,14.77
2023-05-08T00:43:00.152Z,15.39
2023-05-08T00:44:29.322Z,15.68
2023-05-08T00:45:58.670Z,15.83
2023-05-08T00:47:27.885Z,15.23
2023-05-08T00:48:49.637Z,14.59
2023-05-08T00:50:18.893Z,15.05
2023-05-08T00:51:43.316Z,15.18
2023-05-08T00:53:07.517Z,14.99
2023-05-08T00:54:29.687Z,14.73
2023-05-08T00:55:53.701Z,14.87
2023-05-08T00:57:17.775Z,15.16
2023-05-08T00:58:41.841Z,15.03
2023-05-08T01:00:15.334Z,14.73
2023-05-08T01:01:37.555Z,14.62
2023-05-08T01:03:11.023Z,13.67
2023-05-08T01:04:38.427Z,14.20
2023-05-08T01:06:10.123Z,14.33
2023-05-08T01:07:43.916Z,13.27
2023-05-08T01:09:08.078Z,13.85
2023-05-08T01:10:40.516Z,13.51
2023-05-08T01:12:01.991Z,13.41
2023-05-08T01:13:23.912Z,14.58
2023-05-08T01:14:48.284Z,14.23
2023-05-08T01:16:21.746Z,14.04
2023-05-08T01:17:53.202Z,13.62
2023-05-08T01:19:15.001Z,13.28
2023-05-08T01:20:39.759Z,12.90
2023-05-08T01:22:04.335Z,13.11
2023-05-08T01:23:26.716Z,12.78
2023-05-08T01:25:02.780Z,12.08
2023-05-08T01:26:36.780Z,12.18
2023-05-08T01:27:58.328Z,12.51
2023-05-08T01:29:20.524Z,12.51
2023-05-08T01:30:44.277Z,11.99
2023-05-08T01:32:12.858Z,11.45
2023-05-08T01:33:35.453Z,11.93
2023-05-08T01:35:06.931Z,10.97
2023-05-08T01:36:29.127Z,11.03
2023-05-08T01:37:50.837Z,10.84
2023-05-08T01:39:27.926Z,11.16
2023-05-08T01:40:52.047Z,11.14
2023-05-08T01:42:23.835Z,11.47
2023-05-08T01:43:55.151Z,11.33
2023-05-08T01:45:17.249Z,11.23
2023-05-08T01:46:46.557Z,10.77
2023-05-08T01:48:10.799Z,11.15
2023-05-08T01:49:35.599Z,11.46
2023-05-08T01:50:57.592Z,11.17
2023-05-08T01:52:27.070Z,11.02
2023-05-08T01:53:49.186Z,10.85
2023-05-08T01:55:22.878Z,11.58
2023-05-08T01:56:47.609Z,11.56
2023-05-08T01:58:32.722Z,11.30
2023-05-08T01:59:54.446Z,11.82
2023-05-08T02:01:35.261Z,11.17
2023-05-08T02:02:58.232Z,11.83
2023-05-08T02:04:22.895Z,11.26
2023-05-08T02:05:50.271Z,11.42
2023-05-08T02:07:11.756Z,10.47
2023-05-08T02:08:43.326Z,11.58
2023-05-08T02:10:05.029Z,11.59
2023-05-08T02:11:38.353Z,12.21
2023-05-08T02:13:18.904Z,11.67
2023-05-08T02:14:41.660Z,11.50
2023-05-08T02:16:03.063Z,11.08
2023-05-08T02:17:32.171Z,11.32
2023-05-08T02:18:53.818Z,11.61
2023-05-08T02:20:23.068Z,10.93
2023-05-08T02:21:44.849Z,11.04
2023-05-08T02:23:08.621Z,10.69
2023-05-08T02:24:30.721Z,10.90
2023-05-08T02:25:57.398Z,10.84
2023-05-08T02:27:21.364Z,11.24
2023-05-08T02:28:43.447Z,10.86
2023-05-08T02:30:20.542Z,11.49
2023-05-08T02:32:05.296Z,11.66
2023-05-08T02:33:38.971Z,11.15
2023-05-08T02:35:12.406Z,10.23
2023-05-08T02:36:38.987Z,9.84
2023-05-08T02:38:10.536Z,9.82
2023-05-08T02:39:32.613Z,9.58
2023-05-08T02:41:06.102Z,10.52
2023-05-08T02:42:28.354Z,10.31
2023-05-08T02:43:52.721Z,10.43
2023-05-08T02:45:29.311Z,10.64
2023-05-08T02:46:51.312Z,10.15
2023-05-08T02:48:15.573Z,10.55
2023-05-08T02:49:47.041Z,10.51
2023-05-08T02:51:28.018Z,10.77
2023-05-08T02:52:57.427Z,10.85
2023-05-08T02:54:32.926Z,10.36
2023-05-08T02:56:01.633Z,10.85
2023-05-08T02:57:25.897Z,10.34
2023-05-08T02:58:49.981Z,10.50
2023-05-08T03:00:23.813Z,9.85
2023-05-08T03:01:46.115Z,9.95
2023-05-08T03:03:09.985Z,10.26
2023-05-08T03:04:39.240Z,9.94
2023-05-08T03:06:08.288Z,10.06
2023-05-08T03:07:37.397Z,9.93
2023-05-08T03:09:06.308Z,9.59
2023-05-08T03:10:30.698Z,10.49
2023-05-08T03:12:02.172Z,11.02
2023-05-08T03:13:24.275Z,10.57
2023-05-08T03:14:58.299Z,9.75
2023-05-08T03:16:20.175Z,11.42
2023-05-08T03:17:52.389Z,10.81
2023-05-08T03:19:14.244Z,10.44
2023-05-08T03:20:43.696Z,11.14
2023-05-08T03:22:07.544Z,11.38
2023-05-08T03:23:36.600Z,11.79
2023-05-08T03:24:58.440Z,12.05
2023-05-08T03:26:40.001Z,12.59
2023-05-08T03:28:04.650Z,13.60
2023-05-08T03:29:40.862Z,13.43
2023-05-08T03:31:09.864Z,13.04
2023-05-08T03:32:41.094Z,12.28
2023-05-08T03:34:16.041Z,13.12
2023-05-08T03:35:40.606Z,12.41
2023-05-08T03:37:06.026Z,13.02
2023-05-08T03:38:30.565Z,13.42
2023-05-08T03:39:59.954Z,14.32
2023-05-08T03:41:21.744Z,14.12
2023-05-08T03:42:51.208Z,14.37
2023-05-08T03:44:17.075Z,14.34
2023-05-08T03:45:41.279Z,13.90
2023-05-08T03:47:05.914Z,13.89
2023-05-08T03:48:29.824Z,13.97
2023-05-08T03:50:02.942Z,14.33
2023-05-08T03:51:27.265Z,13.59
2023-05-08T03:52:49.228Z,14.25
2023-05-08T03:54:10.901Z,13.93
2023-05-08T03:55:51.786Z,13.81
2023-05-08T03:57:13.234Z,14.09
2023-05-08T03:58:44.713Z,12.73
2023-05-08T04:00:10.631Z,12.94
2023-05-08T04:01:46.725Z,13.42
2023-05-08T04:03:20.889Z,12.49
2023-05-08T04:04:54.736Z,12.05
2023-05-08T04:06:42.160Z,12.23
2023-05-08T04:08:11.831Z,12.98
2023-05-08T04:09:44.262Z,13.60
2023-05-08T04:11:17.541Z,11.95
2023-05-08T04:12:45.224Z,12.40
2023-05-08T04:14:07.719Z,12.20
2023-05-08T04:15:30.673Z,12.39
2023-05-08T04:17:11.051Z,12.92
2023-05-08T04:18:38.178Z,12.66
2023-05-08T04:20:08.121Z,12.09
2023-05-08T04:21:38.270Z,12.52
2023-05-08T04:23:11.956Z,12.75
2023-05-08T04:24:45.448Z,13.59
2023-05-08T04:26:15.893Z,12.62
2023-05-08T04:27:51.395Z,12.58
2023-05-08T04:29:15.658Z,12.08
2023-05-08T04:30:40.247Z,12.63
2023-05-08T04:32:04.072Z,13.41
2023-05-08T04:33:28.492Z,12.84
2023-05-08T04:35:03.389Z,13.37
2023-05-08T04:36:37.124Z,12.98
2023-05-08T04:38:10.487Z,13.23
2023-05-08T04:39:41.373Z,13.91
2023-05-08T04:41:06.798Z,15.53
2023-05-08T04:42:36.453Z,13.38
2023-05-08T04:44:05.261Z,13.26
2023-05-08T04:45:29.934Z,12.47
2023-05-08T04:47:03.279Z,12.52
2023-05-08T04:48:27.597Z,12.27
2023-05-08T04:49:59.531Z,13.35
2023-05-08T04:51:26.474Z,12.41
2023-05-08T04:53:02.458Z,11.17
2023-05-08T04:54:36.039Z,11.08
2023-05-08T04:56:09.643Z,11.27
2023-05-08T04:57:41.660Z,10.48
2023-05-08T04:59:03.660Z,10.36
2023-05-08T05:00:35.314Z,10.77
2023-05-08T05:01:56.868Z,10.43
2023-05-08T05:03:21.030Z,11.12
2023-05-08T05:05:06.102Z,10.85
2023-05-08T05:06:43.142Z,11.42
2023-05-08T05:08:08.966Z,11.83
2023-05-08T05:09:38.677Z,11.80
2023-05-08T05:11:12.149Z,10.25
2023-05-08T05:12:34.193Z,10.30
2023-05-08T05:14:07.817Z,11.29
2023-05-08T05:15:34.115Z,10.98
2023-05-08T05:17:07.449Z,10.24
2023-05-08T05:18:31.943Z,9.58
2023-05-08T05:20:12.123Z,9.96
2023-05-08T05:21:43.797Z,9.60
2023-05-08T05:23:28.918Z,9.74
2023-05-08T05:25:04.683Z,9.43
2023-05-08T05:26:40.583Z,8.41
2023-05-08T05:28:13.519Z,8.53
2023-05-08T05:29:35.786Z,9.07
2023-05-08T05:31:11.609Z,8.01
2023-05-08T05:32:33.725Z,7.07
2023-05-08T05:34:06.797Z,7.09
2023-05-08T05:35:44.402Z,6.98
2023-05-08T05:37:06.838Z,6.66
2023-05-08T05:38:40.775Z,7.96
2023-05-08T05:40:05.019Z,7.45
2023-05-08T05:41:34.395Z,7.64
2023-05-08T05:42:56.396Z,5.29
2023-05-08T05:44:26.017Z,6.83
2023-05-08T05:46:01.607Z,6.47
2023-05-08T05:47:23.551Z,4.67
2023-05-08T05:48:45.313Z,4.76
2023-05-08T05:50:09.473Z,5.15
2023-05-08T05:51:43.143Z,4.81
2023-05-08T05:53:07.376Z,4.69
2023-05-08T05:54:49.306Z,4.80
2023-05-08T05:56:30.027Z,5.17
2023-05-08T05:57:54.151Z,4.82
2023-05-08T05:59:23.381Z,6.14
2023-05-08T06:00:47.510Z,4.82
2023-05-08T06:02:10.421Z,5.33
2023-05-08T06:03:34.768Z,4.83
2023-05-08T06:04:58.351Z,5.85
2023-05-08T06:06:25.599Z,5.74
2023-05-08T06:07:48.280Z,5.30
2023-05-08T06:09:24.495Z,5.49
2023-05-08T06:11:00.174Z,6.18
2023-05-08T06:12:35.969Z,6.42
2023-05-08T06:14:09.595Z,6.86
2023-05-08T06:15:36.347Z,12.09
2023-05-08T06:17:09.994Z,9.65
2023-05-08T06:18:35.014Z,8.97
2023-05-08T06:20:08.299Z,7.49
2023-05-08T06:21:32.737Z,8.02
2023-05-08T06:23:08.168Z,6.85
2023-05-08T06:24:42.047Z,7.00
2023-05-08T06:26:06.033Z,4.91
2023-05-08T06:27:28.539Z,4.70
2023-05-08T06:28:54.591Z,4.79
2023-05-08T06:30:28.017Z,4.66
2023-05-08T06:32:01.463Z,5.06
2023-05-08T06:33:42.482Z,5.22
2023-05-08T06:35:06.074Z,5.07
2023-05-08T06:36:28.421Z,5.36
2023-05-08T06:38:01.767Z,5.31
2023-05-08T06:39:26.039Z,5.07
2023-05-08T06:40:50.062Z,6.98
2023-05-08T06:42:21.255Z,5.20
2023-05-08T06:43:54.986Z,6.07
2023-05-08T06:45:24.243Z,6.53
2023-05-08T06:46:53.269Z,5.62
2023-05-08T06:48:22.424Z,6.01
2023-05-08T06:49:56.093Z,6.06
2023-05-08T06:51:19.854Z,6.08
2023-05-08T06:52:53.375Z,6.73
2023-05-08T06:54:15.184Z,7.23
2023-05-08T06:55:47.473Z,7.82
2023-05-08T06:57:20.463Z,6.71
2023-05-08T06:59:00.878Z,10.31
2023-05-08T07:00:29.248Z,8.93
2023-05-08T07:02:00.719Z,7.66
2023-05-08T07:03:46.240Z,6.20
2023-05-08T07:05:17.468Z,7.95
2023-05-08T07:06:39.577Z,9.80
2023-05-08T07:08:03.447Z,11.47
2023-05-08T07:09:39.223Z,9.76
2023-05-08T07:11:05.488Z,6.21
2023-05-08T07:12:29.576Z,6.03
2023-05-08T07:13:53.711Z,6.42
2023-05-08T07:15:25.952Z,6.40
2023-05-08T07:16:50.530Z,6.23
2023-05-08T07:18:11.835Z,7.09
2023-05-08T07:19:33.975Z,6.66
2023-05-08T07:21:07.184Z,7.67
2023-05-08T07:22:28.950Z,7.25
2023-05-08T07:23:53.677Z,7.37
2023-05-08T07:25:29.410Z,7.41
2023-05-08T07:26:51.551Z,7.39
2023-05-08T07:28:13.189Z,7.44
2023-05-08T07:29:46.870Z,7.27
2023-05-08T07:31:08.415Z,7.54
2023-05-08T07:32:32.915Z,7.65
2023-05-08T07:33:57.011Z,7.41
2023-05-08T07:35:33.580Z,7.95
2023-05-08T07:36:57.287Z,8.68
2023-05-08T07:38:30.732Z,8.55
2023-05-08T07:39:59.916Z,8.55
2023-05-08T07:41:23.769Z,9.00
2023-05-08T07:42:55.308Z,8.44
2023-05-08T07:44:17.005Z,8.58
2023-05-08T07:45:58.367Z,9.27
2023-05-08T07:47:20.122Z,8.86
2023-05-08T07:48:55.583Z,8.79
2023-05-08T07:50:24.803Z,8.77
2023-05-08T07:51:46.929Z,10.25
2023-05-08T07:53:08.678Z,9.68
2023-05-08T07:54:40.703Z,9.63
2023-05-08T07:56:02.096Z,10.01
2023-05-08T07:57:24.091Z,10.44
2023-05-08T07:58:47.772Z,8.89
2023-05-08T08:00:10.034Z,8.66
2023-05-08T08:01:43.160Z,10.18
2023-05-08T08:03:07.292Z,10.71
2023-05-08T08:04:48.533Z,9.22
2023-05-08T08:06:18.685Z,10.50
2023-05-08T08:07:40.295Z,8.45
2023-05-08T08:09:04.510Z,9.01
2023-05-08T08:10:41.195Z,7.71
2023-05-08T08:12:03.198Z,7.07
2023-05-08T08:13:25.344Z,8.34
2023-05-08T08:14:47.200Z,6.83
2023-05-08T08:16:11.640Z,6.95
2023-05-08T08:17:35.701Z,7.20
2023-05-08T08:19:14.375Z,8.51
2023-05-08T08:20:36.413Z,8.30
2023-05-08T08:22:02.297Z,7.37
2023-05-08T08:23:31.796Z,6.98
2023-05-08T08:25:03.130Z,7.49
2023-05-08T08:26:48.601Z,7.80
2023-05-08T08:28:12.493Z,7.47
2023-05-08T08:29:34.726Z,7.10
2023-05-08T08:30:56.770Z,6.92
2023-05-08T08:32:18.549Z,6.89
2023-05-08T08:33:43.389Z,7.16
2023-05-08T08:36:55.120Z,6.51
2023-05-08T08:38:16.868Z,6.89
2023-05-08T08:39:38.586Z,6.75
2023-05-08T08:41:10.313Z,6.45
2023-05-08T08:42:32.272Z,7.17
2023-05-08T08:43:54.133Z,7.00
2023-05-08T08:45:28.262Z,6.68
2023-05-08T08:46:50.029Z,7.34
2023-05-08T08:48:12.683Z,7.49
2023-05-08T08:49:34.317Z,9.47
2023-05-08T08:50:56.309Z,7.00
2023-05-08T08:52:17.918Z,6.57
2023-05-08T08:53:39.975Z,6.54
2023-05-08T08:55:08.932Z,6.11
2023-05-08T08:56:31.047Z,6.33
2023-05-08T08:57:54.979Z,6.63
2023-05-08T08:59:19.326Z,5.97
2023-05-08T09:00:41.750Z,5.51
2023-05-08T09:02:04.048Z,5.57
2023-05-08T09:03:26.155Z,5.72
2023-05-08T09:04:48.076Z,5.47
2023-05-08T09:06:17.204Z,6.18
2023-05-08T09:07:41.231Z,5.82
2023-05-08T09:09:02.566Z,5.61
2023-05-08T09:10:24.374Z,5.42
2023-05-08T09:11:57.609Z,5.84
2023-05-08T09:13:19.796Z,6.44
2023-05-08T09:14:41.992Z,5.62
2023-05-08T09:16:03.633Z,5.43
2023-05-08T09:17:33.127Z,5.30
2023-05-08T09:18:54.853Z,6.09
2023-05-08T09:20:16.436Z,5.75
2023-05-08T09:21:38.460Z,5.87
2023-05-08T09:23:00.857Z,5.96
2023-05-08T09:24:23.570Z,5.81
2023-05-08T09:25:45.406Z,6.00
2023-05-08T09:27:06.621Z,5.69
2023-05-08T09:28:39.982Z,5.23
2023-05-08T09:30:04.825Z,5.95
2023-05-08T09:31:26.875Z,5.79
2023-05-08T09:32:50.042Z,5.26
2023-05-08T09:34:12.007Z,5.33
2023-05-08T09:35:43.749Z,4.81
2023-05-08T09:37:07.129Z,5.04
2023-05-08T09:38:29.307Z,4.89
2023-05-08T09:39:53.262Z,5.48
2023-05-08T09:41:15.570Z,4.72
2023-05-08T09:42:37.786Z,5.26
2023-05-08T09:44:11.050Z,5.10
2023-05-08T09:45:33.319Z,5.42
2023-05-08T09:46:57.506Z,6.15
2023-05-08T09:48:19.134Z,5.98
2023-05-08T09:49:41.267Z,5.35
2023-05-08T09:51:05.513Z,5.10
2023-05-08T09:52:30.013Z,5.71
2023-05-08T09:53:57.101Z,5.50
2023-05-08T09:55:19.215Z,5.55
2023-05-08T09:56:43.161Z,5.74
2023-05-08T09:58:06.892Z,5.04
2023-05-08T09:59:34.374Z,4.64
2023-05-08T10:00:56.667Z,4.73
2023-05-08T10:02:20.448Z,5.23
2023-05-08T10:03:42.508Z,4.83
2023-05-08T10:05:04.479Z,4.80
2023-05-08T10:06:28.416Z,6.07
2023-05-08T10:07:50.454Z,6.65
2023-05-08T10:09:12.287Z,5.87
2023-05-08T10:10:41.957Z,4.77
2023-05-08T10:12:03.620Z,4.54
2023-05-08T10:13:26.212Z,4.43
2023-05-08T10:14:48.259Z,4.39
2023-05-08T10:16:09.595Z,5.02
2023-05-08T10:17:31.524Z,4.64
2023-05-08T10:19:00.713Z,4.79
2023-05-08T10:20:27.085Z,4.46
2023-05-08T10:21:55.944Z,4.26
2023-05-08T10:23:37.012Z,5.26
2023-05-08T10:24:58.978Z,4.15
2023-05-08T10:26:21.689Z,4.48
2023-05-08T10:27:43.446Z,4.48
2023-05-08T10:29:16.606Z,4.67
2023-05-08T10:30:38.736Z,5.18
2023-05-08T10:32:03.252Z,4.52
2023-05-08T10:33:25.065Z,4.75
2023-05-08T10:34:49.429Z,4.67
2023-05-08T10:36:11.054Z,4.67
2023-05-08T10:37:45.073Z,4.60
2023-05-08T10:39:17.040Z,4.30
2023-05-08T10:40:38.879Z,4.85
2023-05-08T10:42:07.841Z,4.58
2023-05-08T10:43:41.656Z,4.41
2023-05-08T10:45:05.836Z,4.24
2023-05-08T10:46:27.609Z,3.92
2023-05-08T10:47:52.734Z,4.18
2023-05-08T10:49:16.550Z,4.53
2023-05-08T10:50:52.525Z,4.88
2023-05-08T10:52:16.218Z,4.21
2023-05-08T10:53:41.113Z,4.19
2023-05-08T10:55:06.555Z,4.31
2023-05-08T10:56:40.968Z,4.56
2023-05-08T10:58:16.909Z,4.42
2023-05-08T10:59:39.055Z,4.57
2023-05-08T11:01:03.037Z,4.09
2023-05-08T11:02:38.337Z,4.22
2023-05-08T11:04:02.271Z,4.21
2023-05-08T11:05:26.395Z,4.50
2023-05-08T11:06:55.293Z,4.34
2023-05-08T11:08:24.716Z,4.45
2023-05-08T11:09:46.704Z,4.06
2023-05-08T11:11:15.360Z,3.97
2023-05-08T11:12:37.935Z,3.85
2023-05-08T11:14:00.313Z,4.20
2023-05-08T11:15:26.680Z,4.07
2023-05-08T11:16:48.629Z,4.34
2023-05-08T11:18:17.463Z,3.97
2023-05-08T11:19:46.565Z,4.70
2023-05-08T11:21:08.303Z,4.39
2023-05-08T11:22:38.185Z,4.59
2023-05-08T11:24:07.479Z,3.95
2023-05-08T11:25:41.384Z,4.69
2023-05-08T11:27:03.124Z,4.34
2023-05-08T11:28:24.682Z,4.30
2023-05-08T11:29:46.433Z,4.16
2023-05-08T11:31:08.190Z,4.11
2023-05-08T11:32:30.412Z,4.07
2023-05-08T11:33:52.437Z,3.84
2023-05-08T11:35:16.606Z,3.98
2023-05-08T11:36:38.833Z,4.43
2023-05-08T11:38:00.505Z,4.48
2023-05-08T11:39:27.112Z,4.23
2023-05-08T11:40:49.218Z,4.12
2023-05-08T11:42:13.346Z,4.56
2023-05-08T11:43:38.582Z,4.48
2023-05-08T11:45:03.097Z,4.32
2023-05-08T11:46:26.991Z,4.25
2023-05-08T11:47:51.983Z,4.70
2023-05-08T11:49:24.698Z,4.25
2023-05-08T11:50:49.753Z,4.23
2023-05-08T11:52:19.058Z,4.41
2023-05-08T11:53:44.065Z,3.86
2023-05-08T11:55:05.703Z,4.20
2023-05-08T11:56:27.388Z,4.12
2023-05-08T11:57:49.106Z,4.80
2023-05-08T11:59:10.914Z,5.84
2023-05-08T12:00:35.137Z,4.92
2023-05-08T12:02:07.583Z,5.06
2023-05-08T12:03:31.130Z,5.86
2023-05-08T12:04:53.548Z,5.80
2023-05-08T12:06:17.225Z,6.59
2023-05-08T12:07:41.701Z,6.21
2023-05-08T12:09:05.254Z,5.39
2023-05-08T12:10:27.196Z,6.85
2023-05-08T12:11:56.557Z,9.76
2023-05-08T12:13:21.410Z,9.63
2023-05-08T12:14:51.397Z,5.33
2023-05-08T12:16:12.971Z,4.38
2023-05-08T12:17:35.693Z,4.31
2023-05-08T12:18:57.412Z,4.68
2023-05-08T12:20:43.247Z,4.24
2023-05-08T12:22:04.708Z,4.41
2023-05-08T12:23:33.852Z,4.17
2023-05-08T12:24:57.992Z,4.09
2023-05-08T12:26:19.733Z,4.05
2023-05-08T12:27:46.380Z,4.35
2023-05-08T12:29:10.082Z,3.71
2023-05-08T12:30:43.829Z,3.63
2023-05-08T12:32:05.407Z,4.05
2023-05-08T12:33:29.449Z,3.35
2023-05-08T12:34:52.467Z,3.44
2023-05-08T12:36:13.826Z,3.96
2023-05-08T12:37:37.996Z,3.78
2023-05-08T12:39:07.161Z,3.95
2023-05-08T12:40:28.945Z,3.45
2023-05-08T12:41:51.159Z,3.47
2023-05-08T12:43:12.768Z,3.71
2023-05-08T12:44:34.609Z,3.61
2023-05-08T12:45:58.661Z,3.79
2023-05-08T12:47:20.806Z,3.68
2023-05-08T12:48:42.805Z,3.62
2023-05-08T12:50:04.717Z,3.46
2023-05-08T12:51:34.274Z,3.62
2023-05-08T12:53:00.918Z,3.56
2023-05-08T12:54:22.770Z,3.33
2023-05-08T12:55:49.577Z,3.50
2023-05-08T12:57:11.582Z,3.41
2023-05-08T12:58:33.759Z,3.49
2023-05-08T13:00:07.270Z,3.96
2023-05-08T13:01:33.443Z,3.44
2023-05-08T13:02:55.324Z,4.13
2023-05-08T13:04:17.374Z,3.79
2023-05-08T13:05:39.355Z,3.46
2023-05-08T13:07:01.101Z,3.24
2023-05-08T13:08:22.635Z,3.66
2023-05-08T13:09:44.544Z,3.60
2023-05-08T13:11:08.579Z,3.64
2023-05-08T13:12:30.557Z,3.56
2023-05-08T13:13:56.637Z,4.57
2023-05-08T13:15:18.224Z,5.45
2023-05-08T13:16:40.274Z,3.87
2023-05-08T13:18:02.091Z,3.40
2023-05-08T13:19:31.205Z,3.69
2023-05-08T13:20:52.872Z,3.63
2023-05-08T13:22:26.300Z,3.63
2023-05-08T13:23:48.462Z,3.59
2023-05-08T13:25:10.447Z,3.86
2023-05-08T13:26:47.876Z,3.55
2023-05-08T13:28:12.119Z,2.93
2023-05-08T13:29:34.257Z,3.17
2023-05-08T13:30:55.890Z,4.00
2023-05-08T13:32:17.445Z,3.75
2023-05-08T13:33:39.362Z,3.48
2023-05-08T13:35:01.411Z,3.40
2023-05-08T13:36:26.410Z,3.29
2023-05-08T13:37:50.770Z,3.14
2023-05-08T13:39:15.123Z,3.46
2023-05-08T13:40:37.213Z,3.51
2023-05-08T13:41:59.099Z,3.87
2023-05-08T13:43:28.579Z,3.54
2023-05-08T13:45:05.329Z,3.34
2023-05-08T13:46:34.597Z,3.72
2023-05-08T13:47:58.576Z,3.30
2023-05-08T13:49:32.098Z,3.52
2023-05-08T13:51:01.602Z,4.00
2023-05-08T13:52:23.597Z,3.29
2023-05-08T13:53:47.809Z,3.20
2023-05-08T13:55:09.632Z,3.26
2023-05-08T13:56:32.067Z,3.50
2023-05-08T13:57:53.595Z,3.52
2023-05-08T13:59:14.993Z,3.54
2023-05-08T14:00:37.043Z,3.44
2023-05-08T14:01:58.813Z,3.81
2023-05-08T14:03:25.244Z,3.95
2023-05-08T14:04:47.602Z,3.94
2023-05-08T14:06:09.250Z,3.79
2023-05-08T14:07:33.515Z,3.55
2023-05-08T14:09:18.129Z,3.34
2023-05-08T14:10:40.732Z,3.21
2023-05-08T14:12:02.727Z,2.99
2023-05-08T14:13:24.377Z,3.49
2023-05-08T14:14:45.951Z,3.35
2023-05-08T14:16:10.436Z,3.14
2023-05-08T14:17:34.492Z,3.63
2023-05-08T14:19:00.676Z,3.38
2023-05-08T14:20:22.445Z,2.93
2023-05-08T14:21:59.945Z,3.21
2023-05-08T14:23:23.973Z,3.15
2023-05-08T14:24:48.375Z,3.21
2023-05-08T14:26:09.926Z,3.36
2023-05-08T14:27:36.605Z,3.37
2023-05-08T14:28:58.273Z,3.28
2023-05-08T14:30:22.243Z,3.44
2023-05-08T14:31:44.264Z,3.53
2023-05-08T14:33:05.953Z,3.64
2023-05-08T14:34:27.924Z,3.38
2023-05-08T14:35:49.486Z,3.64
2023-05-08T14:37:23.311Z,3.50
2023-05-08T14:38:52.996Z,3.37
2023-05-08T14:40:14.794Z,3.46
2023-05-08T14:41:38.273Z,3.57
2023-05-08T14:43:00.048Z,3.28
2023-05-08T14:44:33.659Z,2.99
2023-05-08T14:45:55.674Z,3.34
2023-05-08T14:47:17.443Z,3.49
2023-05-08T14:48:39.293Z,3.13
2023-05-08T14:50:01.159Z,3.63
2023-05-08T14:51:25.376Z,3.40
2023-05-08T14:52:47.355Z,3.21
2023-05-08T14:54:09.165Z,3.52
2023-05-08T14:55:33.330Z,3.54
2023-05-08T14:57:05.089Z,3.45
2023-05-08T14:58:26.966Z,3.50
2023-05-08T14:59:55.393Z,3.26
2023-05-08T15:01:16.752Z,3.30
2023-05-08T15:02:39.821Z,3.50
2023-05-08T15:04:03.963Z,3.63
2023-05-08T15:05:25.690Z,3.43
2023-05-08T15:06:47.945Z,3.44
2023-05-08T15:08:09.820Z,3.85
2023-05-08T15:10:00.167Z,3.74
2023-05-08T15:12:53.070Z,3.48
2023-05-08T15:14:17.264Z,3.48
2023-05-08T15:15:41.969Z,2.95
2023-05-08T15:17:06.344Z,3.46
2023-05-08T15:18:35.587Z,3.50
2023-05-08T15:19:57.374Z,3.49
2023-05-08T15:21:20.990Z,3.34
2023-05-08T15:22:54.524Z,3.14
2023-05-08T15:24:19.435Z,3.32
2023-05-08T15:25:41.560Z,3.13
2023-05-08T15:27:03.743Z,3.20
2023-05-08T15:28:25.325Z,3.23
2023-05-08T15:29:49.833Z,2.98
2023-05-08T15:31:14.087Z,3.03
2023-05-08T15:32:48.246Z,3.39
2023-05-08T15:34:14.310Z,3.13
2023-05-08T15:35:38.427Z,3.23
2023-05-08T15:37:02.241Z,3.24
2023-05-08T15:38:23.630Z,3.39
2023-05-08T15:39:45.412Z,3.44
2023-05-08T15:41:07.418Z,3.17
2023-05-08T15:42:31.254Z,3.07
2023-05-08T15:43:52.872Z,3.19
2023-05-08T15:45:16.882Z,3.39
2023-05-08T15:46:52.858Z,3.56
2023-05-08T15:48:16.253Z,4.53
2023-05-08T15:49:40.904Z,5.90
2023-05-08T15:51:02.498Z,4.29
2023-05-08T15:52:24.223Z,3.40
2023-05-08T15:53:46.027Z,3.01
2023-05-08T15:55:07.868Z,3.18
2023-05-08T15:56:37.246Z,3.23
2023-05-08T15:57:59.366Z,3.23
2023-05-08T15:59:28.088Z,3.34
2023-05-08T16:00:52.375Z,3.46
2023-05-08T16:02:21.454Z,4.33
2023-05-08T16:03:43.298Z,4.36
2023-05-08T16:05:04.727Z,4.42
2023-05-08T16:06:26.718Z,4.10
2023-05-08T16:07:51.569Z,4.01
2023-05-08T16:09:25.065Z,3.74
2023-05-08T16:10:47.260Z,4.94
2023-05-08T16:12:08.873Z,4.94
2023-05-08T16:13:32.781Z,3.72
2023-05-08T16:14:54.719Z,3.14
2023-05-08T16:16:23.638Z,3.33
2023-05-08T16:17:45.460Z,3.54
2023-05-08T16:19:09.300Z,3.17
2023-05-08T16:20:32.102Z,3.10
2023-05-08T16:21:55.469Z,3.69
2023-05-08T16:23:17.332Z,3.76
2023-05-08T16:24:39.325Z,3.15
2023-05-08T16:26:05.468Z,3.41
2023-05-08T16:27:29.288Z,3.42
2023-05-08T16:28:53.329Z,3.41
2023-05-08T16:30:14.889Z,3.60
2023-05-08T16:31:36.741Z,3.61
2023-05-08T16:32:58.446Z,3.60
2023-05-08T16:34:19.802Z,3.66
2023-05-08T16:35:44.496Z,3.60
2023-05-08T16:37:06.415Z,2.82
2023-05-08T16:38:28.025Z,3.92
2023-05-08T16:39:49.879Z,3.68
2023-05-08T16:41:12.708Z,4.70
2023-05-08T16:42:34.312Z,4.36
2023-05-08T16:43:56.031Z,3.68
2023-05-08T16:45:17.576Z,3.28
2023-05-08T16:46:39.234Z,3.62
2023-05-08T16:48:01.044Z,3.49
2023-05-08T16:49:22.932Z,4.37
2023-05-08T16:50:45.045Z,4.43
2023-05-08T16:52:08.650Z,4.80
2023-05-08T16:53:32.409Z,5.84
2023-05-08T16:54:56.765Z,4.83
2023-05-08T16:56:25.699Z,4.50
2023-05-08T16:57:47.236Z,4.94
2023-05-08T16:59:09.004Z,4.68
2023-05-08T17:00:30.700Z,5.08
2023-05-08T17:01:55.352Z,5.31
2023-05-08T17:03:17.091Z,4.82
2023-05-08T17:04:41.224Z,4.47
2023-05-08T17:06:02.902Z,4.86
2023-05-08T17:07:24.454Z,4.23
2023-05-08T17:08:53.981Z,4.87
2023-05-08T17:10:23.213Z,4.94
2023-05-08T17:11:52.035Z,4.42
2023-05-08T17:13:13.800Z,4.63
2023-05-08T17:14:48.853Z,4.67
2023-05-08T17:16:12.878Z,5.00
2023-05-08T17:17:35.061Z,4.34
2023-05-08T17:19:08.425Z,4.61
2023-05-08T17:20:30.532Z,4.34
2023-05-08T17:21:55.688Z,4.47
2023-05-08T17:23:20.854Z,4.30
2023-05-08T17:24:43.452Z,4.21
2023-05-08T17:26:04.893Z,3.97
2023-05-08T17:27:27.496Z,4.00
2023-05-08T17:28:51.748Z,3.59
2023-05-08T17:30:15.072Z,4.36
2023-05-08T17:31:39.267Z,4.59
2023-05-08T17:33:04.066Z,4.82
2023-05-08T17:34:26.059Z,4.96
2023-05-08T17:35:47.504Z,5.04
2023-05-08T17:37:11.819Z,5.09
2023-05-08T17:38:35.863Z,5.37
2023-05-08T17:40:05.123Z,5.33
2023-05-08T17:41:28.945Z,5.32
2023-05-08T17:42:53.169Z,5.29
2023-05-08T17:44:15.065Z,5.33
2023-05-08T17:47:48.458Z,5.57
2023-05-08T17:49:12.974Z,5.61
2023-05-08T17:50:35.388Z,5.18
2023-05-08T17:51:59.011Z,4.82
2023-05-08T17:53:20.775Z,5.20
2023-05-08T17:54:42.687Z,5.38
2023-05-08T17:56:04.204Z,5.46
2023-05-08T17:57:26.005Z,5.18
2023-05-08T17:58:47.769Z,5.14
2023-05-08T18:00:20.809Z,4.42
2023-05-08T18:01:42.923Z,4.79
2023-05-08T18:03:06.795Z,5.23
2023-05-08T18:04:28.778Z,5.52
2023-05-08T18:05:53.244Z,5.62
2023-05-08T18:07:19.607Z,5.94
2023-05-08T18:08:42.174Z,6.48
2023-05-08T18:10:04.004Z,6.17
2023-05-08T18:11:25.948Z,6.90
2023-05-08T18:12:55.704Z,6.51
2023-05-08T18:14:19.599Z,6.83
2023-05-08T18:15:42.954Z,7.16
2023-05-08T18:17:11.716Z,6.62
2023-05-08T18:18:36.118Z,6.68
2023-05-08T18:19:58.110Z,6.31
2023-05-08T18:21:19.626Z,7.16
2023-05-08T18:22:49.491Z,6.65
2023-05-08T18:24:18.065Z,6.54
2023-05-08T18:25:40.327Z,6.72
2023-05-08T18:27:02.393Z,7.58
2023-05-08T18:28:23.965Z,7.76
2023-05-08T18:29:45.832Z,9.84
2023-05-08T18:31:19.105Z,13.57
2023-05-08T18:32:43.901Z,12.77
2023-05-08T18:34:05.045Z,9.50
2023-05-08T18:35:26.727Z,8.14
2023-05-08T18:36:50.398Z,8.79
2023-05-08T18:38:11.973Z,8.63
2023-05-08T18:39:36.192Z,8.96
2023-05-08T18:40:57.907Z,8.85
2023-05-08T18:42:19.308Z,8.10
2023-05-08T18:43:41.743Z,8.87
2023-05-08T18:45:05.605Z,8.97
2023-05-08T18:46:29.601Z,9.38
2023-05-08T18:48:05.923Z,8.98
2023-05-08T18:49:27.665Z,11.99
2023-05-08T18:51:09.757Z,12.99
2023-05-08T18:52:32.208Z,12.66
2023-05-08T18:53:57.129Z,12.49
2023-05-08T18:55:21.374Z,12.41
2023-05-08T18:56:43.439Z,10.92
2023-05-08T18:58:07.328Z,10.05
2023-05-08T18:59:41.116Z,9.84
2023-05-08T19:01:06.189Z,8.99
2023-05-08T19:02:28.145Z,9.71